Blue Bay — V2CE6 — position and weather

sailwx.info

Track history (hours):
 
Tides and Currents Weather Stations Pressure Air Temp Water Temp Dewpoint Dewpoint Depression Visibility Wind Speed Wind Dir Waves Ship Positions

Blue Bay

Last reported at 2014-Dec-21 14:29 UTC. Time now 2014-Dec-27 18:34 UTC.
Position N 50°26' W 000°33'.

Length 89 m; draft 5.4 m.

Type: Cargo ship. MMSI: 304519000.

Date/timePositionNaut miles runAvg speedWind from/ knotsBaromVisibWave heightAir tempDewpointWater temp
2014-Dec-21 14:29N 50°26' W 000°33'8 8.8
2014-Dec-21 13:34N 50°28' W 000°21'12 8.6
2014-Dec-21 12:12N 50°31' W 000°03'6 8.4
2014-Dec-21 11:26N 50°33' E 000°07'7 8.1
2014-Dec-21 10:34N 50°35' E 000°17'8 7.6
2014-Dec-21 09:34N 50°38' E 000°29'8 7.5
2014-Dec-21 08:33N 50°41' E 000°40'8 8.2
2014-Dec-21 07:33N 50°46' E 000°50'10 9.6
2014-Dec-21 06:33N 50°52' E 001°02'1111.2
2014-Dec-21 05:32N 50°59' E 001°16'1211.9
2014-Dec-21 04:34N 51°06' E 001°31'1010.4
2014-Dec-21 03:34N 51°14' E 001°41'10 9.7
2014-Dec-21 02:33N 51°24' E 001°43'9 8.9
2014-Dec-21 01:34N 51°33' E 001°44'9 8.7
2014-Dec-21 00:34N 51°41' E 001°44'9 8.7
2014-Dec-20 23:33N 51°50' E 001°41'9 8.7
2014-Dec-20 22:34N 51°56' E 001°30'9 8.6
2014-Dec-20 21:34N 51°58' E 001°17'6 6.1
2014-Dec-20 20:33N 52°02' E 001°09'0 0.0
2014-Dec-20 19:33N 52°02' E 001°09'0 0.0
2014-Dec-20 18:30N 52°02' E 001°09'0 0.0
2014-Dec-20 17:33N 52°02' E 001°09'0 0.0
2014-Dec-20 16:33N 52°02' E 001°09'0 0.0
2014-Dec-20 15:33N 52°02' E 001°09'0 0.0
2014-Dec-20 14:33N 52°02' E 001°09'0 0.0
2014-Dec-20 13:33N 52°02' E 001°09'0 0.0
2014-Dec-20 12:33N 52°02' E 001°09'0 0.0
2014-Dec-20 11:33N 52°02' E 001°09'0 0.0
2014-Dec-20 10:33N 52°02' E 001°09'0 0.0
2014-Dec-20 09:33N 52°02' E 001°09'0 0.0
2014-Dec-20 08:33N 52°02' E 001°09'0 0.0
2014-Dec-20 07:33N 52°02' E 001°09'0 0.0
2014-Dec-20 06:33N 52°02' E 001°09'0 0.0
2014-Dec-20 05:33N 52°02' E 001°09'0 0.0
2014-Dec-20 04:33N 52°02' E 001°09'0 0.0
2014-Dec-20 03:33N 52°02' E 001°09'0 0.0
2014-Dec-20 02:33N 52°02' E 001°09'0 0.0
2014-Dec-20 01:33N 52°02' E 001°09'0 0.0
2014-Dec-20 00:33N 52°02' E 001°09'0 0.0
2014-Dec-19 23:33N 52°02' E 001°09'0 0.0
2014-Dec-19 22:33N 52°02' E 001°09'0 0.0
2014-Dec-19 21:33N 52°02' E 001°09'0 0.0
2014-Dec-19 20:33N 52°02' E 001°09'0 0.0
2014-Dec-19 19:33N 52°02' E 001°09'0 0.0
2014-Dec-19 18:33N 52°02' E 001°09'0 0.0
2014-Dec-19 17:33N 52°02' E 001°09'0 0.0
2014-Dec-19 16:33N 52°02' E 001°09'0 0.0
2014-Dec-19 15:33N 52°02' E 001°09'0 0.0
2014-Dec-19 14:33N 52°02' E 001°09'0 0.0
2014-Dec-19 13:33N 52°02' E 001°09'0 0.0
2014-Dec-19 12:33N 52°02' E 001°09'1 0.8
2014-Dec-19 11:33N 52°02' E 001°10'7 7.4
2014-Dec-19 10:33N 51°56' E 001°19'9 8.6
2014-Dec-19 09:33N 51°57' E 001°32'0 0.3
2014-Dec-19 08:33N 51°58' E 001°32'3 2.6
2014-Dec-19 07:33N 51°59' E 001°35'2 1.7
2014-Dec-19 06:33N 51°58' E 001°35'4 4.2
2014-Dec-19 05:33N 52°02' E 001°37'6 6.1
2014-Dec-19 04:33N 52°01' E 001°47'8 8.1
2014-Dec-19 03:33N 52°00' E 002°00'19 8.0
2014-Dec-19 01:11N 51°53' E 002°29'6 8.9
2014-Dec-19 00:32N 51°50' E 002°37'8 7.9
2014-Dec-18 23:33N 51°47' E 002°48'6 6.3
2014-Dec-18 22:33N 51°46' E 002°58'5 5.3
2014-Dec-18 21:33N 51°45' E 003°07'5 5.2
2014-Dec-18 20:33N 51°44' E 003°15'7 6.7
2014-Dec-18 19:33N 51°38' E 003°21'10 9.6
2014-Dec-18 18:33N 51°30' E 003°29'5 5.4
2014-Dec-18 17:33N 51°27' E 003°36'0 0.0
2014-Dec-18 16:33N 51°27' E 003°36'0 0.0
2014-Dec-18 15:33N 51°27' E 003°36'0 0.0
2014-Dec-18 14:33N 51°27' E 003°36'0 0.0
2014-Dec-18 13:33N 51°27' E 003°36'0 0.0
2014-Dec-18 12:33N 51°27' E 003°36'0 0.0
2014-Dec-18 11:33N 51°27' E 003°36'0 0.0
2014-Dec-18 10:33N 51°27' E 003°36'0 0.0
2014-Dec-18 09:33N 51°27' E 003°36'0 0.0
2014-Dec-18 08:33N 51°27' E 003°36'0 0.0
2014-Dec-18 07:33N 51°27' E 003°36'0 0.0
2014-Dec-18 06:33N 51°27' E 003°36'0 0.0
2014-Dec-18 05:33N 51°27' E 003°36'0 0.0
2014-Dec-18 04:33N 51°27' E 003°36'0 0.0
2014-Dec-18 03:33N 51°27' E 003°36'0 0.0
2014-Dec-18 02:33N 51°27' E 003°36'0 0.0
2014-Dec-18 01:33N 51°27' E 003°36'0 0.0
2014-Dec-18 00:34N 51°27' E 003°36'0 0.0
2014-Dec-17 23:33N 51°27' E 003°36'0 0.0
2014-Dec-17 22:33N 51°27' E 003°36'0 0.0
2014-Dec-17 21:33N 51°27' E 003°36'0 0.0
2014-Dec-17 20:33N 51°27' E 003°36'0 0.0
2014-Dec-17 19:33N 51°27' E 003°36'0 0.0
2014-Dec-17 18:33N 51°27' E 003°36'0 0.0
2014-Dec-17 17:33N 51°27' E 003°36'0 0.0
2014-Dec-17 16:33N 51°27' E 003°36'0 0.0
2014-Dec-17 15:33N 51°27' E 003°36'0 0.0
2014-Dec-17 14:33N 51°27' E 003°36'0 0.0
2014-Dec-17 13:33N 51°27' E 003°36'0 0.0
2014-Dec-17 12:33N 51°27' E 003°36'0 0.0
2014-Dec-17 11:33N 51°27' E 003°36'0 0.0
2014-Dec-17 10:33N 51°27' E 003°36'0 0.0
2014-Dec-17 09:33N 51°27' E 003°36'0 0.0
2014-Dec-17 08:33N 51°27' E 003°36'0 0.0
2014-Dec-17 07:33N 51°27' E 003°36'0 0.0
2014-Dec-17 06:33N 51°27' E 003°36'0 0.0
2014-Dec-17 05:33N 51°27' E 003°36'0 0.0
2014-Dec-17 04:33N 51°27' E 003°36'0 0.0
2014-Dec-17 03:33N 51°27' E 003°36'0 0.0
2014-Dec-17 02:33N 51°27' E 003°36'0 0.0
2014-Dec-17 01:33N 51°27' E 003°36'0 0.0
2014-Dec-17 00:33N 51°27' E 003°36'0 0.0
2014-Dec-16 23:33N 51°27' E 003°36'0 0.0
2014-Dec-16 22:33N 51°27' E 003°36'0 0.0
2014-Dec-16 21:33N 51°27' E 003°36'0 0.0
2014-Dec-16 20:33N 51°27' E 003°36'0 0.0
2014-Dec-16 19:33N 51°27' E 003°36'0 0.0
2014-Dec-16 18:33N 51°27' E 003°36'0 0.0
2014-Dec-16 17:33N 51°27' E 003°36'0 0.0
2014-Dec-16 16:33N 51°27' E 003°36'0 0.0
2014-Dec-16 15:33N 51°27' E 003°36'0 0.0
2014-Dec-16 14:33N 51°27' E 003°36'0 0.0
2014-Dec-16 13:33N 51°27' E 003°36'0 0.0
2014-Dec-16 12:33N 51°27' E 003°36'1 0.7
2014-Dec-16 11:34N 51°26' E 003°37'6 6.4
2014-Dec-16 10:33N 51°25' E 003°27'10 9.9
2014-Dec-16 09:33N 51°24' E 003°11'1010.3
2014-Dec-16 08:33N 51°22' E 002°55'10 9.1
2014-Dec-16 07:30N 51°22' E 002°39'8 8.5
2014-Dec-16 06:32N 51°21' E 002°26'1111.0
2014-Dec-16 05:33N 51°15' E 002°11'1110.5
2014-Dec-16 04:33N 51°10' E 001°57'10 9.6
2014-Dec-16 03:32N 51°04' E 001°44'9 9.0
2014-Dec-16 02:33N 50°58' E 001°34'10 8.3
2014-Dec-16 01:22N 50°50' E 001°26'  
Track history (hours):
 
Tides and Currents Weather Stations Pressure Air Temp Water Temp Dewpoint Dewpoint Depression Visibility Wind Speed Wind Dir Waves Ship Positions

Blue Bay

Last reported at 2014-Dec-21 14:29 UTC. Time now 2014-Dec-27 18:34 UTC.
Position N 50°26' W 000°33'.

Length 89 m; draft 5.4 m.

Type: Cargo ship. MMSI: 304519000.

Date/timePositionNaut miles runAvg speedWind from/ knotsBaromVisibWave heightAir tempDewpointWater temp
2014-Dec-21 14:29N 50°26' W 000°33'8 8.8
2014-Dec-21 13:34N 50°28' W 000°21'12 8.6
2014-Dec-21 12:12N 50°31' W 000°03'6 8.4
2014-Dec-21 11:26N 50°33' E 000°07'7 8.1
2014-Dec-21 10:34N 50°35' E 000°17'8 7.6
2014-Dec-21 09:34N 50°38' E 000°29'8 7.5
2014-Dec-21 08:33N 50°41' E 000°40'8 8.2
2014-Dec-21 07:33N 50°46' E 000°50'10 9.6
2014-Dec-21 06:33N 50°52' E 001°02'1111.2
2014-Dec-21 05:32N 50°59' E 001°16'1211.9
2014-Dec-21 04:34N 51°06' E 001°31'1010.4
2014-Dec-21 03:34N 51°14' E 001°41'10 9.7
2014-Dec-21 02:33N 51°24' E 001°43'9 8.9
2014-Dec-21 01:34N 51°33' E 001°44'9 8.7
2014-Dec-21 00:34N 51°41' E 001°44'9 8.7
2014-Dec-20 23:33N 51°50' E 001°41'9 8.7
2014-Dec-20 22:34N 51°56' E 001°30'9 8.6
2014-Dec-20 21:34N 51°58' E 001°17'6 6.1
2014-Dec-20 20:33N 52°02' E 001°09'0 0.0
2014-Dec-20 19:33N 52°02' E 001°09'0 0.0
2014-Dec-20 18:30N 52°02' E 001°09'0 0.0
2014-Dec-20 17:33N 52°02' E 001°09'0 0.0
2014-Dec-20 16:33N 52°02' E 001°09'0 0.0
2014-Dec-20 15:33N 52°02' E 001°09'0 0.0
2014-Dec-20 14:33N 52°02' E 001°09'0 0.0
2014-Dec-20 13:33N 52°02' E 001°09'0 0.0
2014-Dec-20 12:33N 52°02' E 001°09'0 0.0
2014-Dec-20 11:33N 52°02' E 001°09'0 0.0
2014-Dec-20 10:33N 52°02' E 001°09'0 0.0
2014-Dec-20 09:33N 52°02' E 001°09'0 0.0
2014-Dec-20 08:33N 52°02' E 001°09'0 0.0
2014-Dec-20 07:33N 52°02' E 001°09'0 0.0
2014-Dec-20 06:33N 52°02' E 001°09'0 0.0
2014-Dec-20 05:33N 52°02' E 001°09'0 0.0
2014-Dec-20 04:33N 52°02' E 001°09'0 0.0
2014-Dec-20 03:33N 52°02' E 001°09'0 0.0
2014-Dec-20 02:33N 52°02' E 001°09'0 0.0
2014-Dec-20 01:33N 52°02' E 001°09'0 0.0
2014-Dec-20 00:33N 52°02' E 001°09'0 0.0
2014-Dec-19 23:33N 52°02' E 001°09'0 0.0
2014-Dec-19 22:33N 52°02' E 001°09'0 0.0
2014-Dec-19 21:33N 52°02' E 001°09'0 0.0
2014-Dec-19 20:33N 52°02' E 001°09'0 0.0
2014-Dec-19 19:33N 52°02' E 001°09'0 0.0
2014-Dec-19 18:33N 52°02' E 001°09'0 0.0
2014-Dec-19 17:33N 52°02' E 001°09'0 0.0
2014-Dec-19 16:33N 52°02' E 001°09'0 0.0
2014-Dec-19 15:33N 52°02' E 001°09'0 0.0
2014-Dec-19 14:33N 52°02' E 001°09'0 0.0
2014-Dec-19 13:33N 52°02' E 001°09'0 0.0
2014-Dec-19 12:33N 52°02' E 001°09'1 0.8
2014-Dec-19 11:33N 52°02' E 001°10'7 7.4
2014-Dec-19 10:33N 51°56' E 001°19'9 8.6
2014-Dec-19 09:33N 51°57' E 001°32'0 0.3
2014-Dec-19 08:33N 51°58' E 001°32'3 2.6
2014-Dec-19 07:33N 51°59' E 001°35'2 1.7
2014-Dec-19 06:33N 51°58' E 001°35'4 4.2
2014-Dec-19 05:33N 52°02' E 001°37'6 6.1
2014-Dec-19 04:33N 52°01' E 001°47'8 8.1
2014-Dec-19 03:33N 52°00' E 002°00'19 8.0
2014-Dec-19 01:11N 51°53' E 002°29'6 8.9
2014-Dec-19 00:32N 51°50' E 002°37'8 7.9
2014-Dec-18 23:33N 51°47' E 002°48'6 6.3
2014-Dec-18 22:33N 51°46' E 002°58'5 5.3
2014-Dec-18 21:33N 51°45' E 003°07'5 5.2
2014-Dec-18 20:33N 51°44' E 003°15'7 6.7
2014-Dec-18 19:33N 51°38' E 003°21'10 9.6
2014-Dec-18 18:33N 51°30' E 003°29'5 5.4
2014-Dec-18 17:33N 51°27' E 003°36'0 0.0
2014-Dec-18 16:33N 51°27' E 003°36'0 0.0
2014-Dec-18 15:33N 51°27' E 003°36'0 0.0
2014-Dec-18 14:33N 51°27' E 003°36'0 0.0
2014-Dec-18 13:33N 51°27' E 003°36'0 0.0
2014-Dec-18 12:33N 51°27' E 003°36'0 0.0
2014-Dec-18 11:33N 51°27' E 003°36'0 0.0
2014-Dec-18 10:33N 51°27' E 003°36'0 0.0
2014-Dec-18 09:33N 51°27' E 003°36'0 0.0
2014-Dec-18 08:33N 51°27' E 003°36'0 0.0
2014-Dec-18 07:33N 51°27' E 003°36'0 0.0
2014-Dec-18 06:33N 51°27' E 003°36'0 0.0
2014-Dec-18 05:33N 51°27' E 003°36'0 0.0
2014-Dec-18 04:33N 51°27' E 003°36'0 0.0
2014-Dec-18 03:33N 51°27' E 003°36'0 0.0
2014-Dec-18 02:33N 51°27' E 003°36'0 0.0
2014-Dec-18 01:33N 51°27' E 003°36'0 0.0
2014-Dec-18 00:34N 51°27' E 003°36'0 0.0
2014-Dec-17 23:33N 51°27' E 003°36'0 0.0
2014-Dec-17 22:33N 51°27' E 003°36'0 0.0
2014-Dec-17 21:33N 51°27' E 003°36'0 0.0
2014-Dec-17 20:33N 51°27' E 003°36'0 0.0
2014-Dec-17 19:33N 51°27' E 003°36'0 0.0
2014-Dec-17 18:33N 51°27' E 003°36'0 0.0
2014-Dec-17 17:33N 51°27' E 003°36'0 0.0
2014-Dec-17 16:33N 51°27' E 003°36'0 0.0
2014-Dec-17 15:33N 51°27' E 003°36'0 0.0
2014-Dec-17 14:33N 51°27' E 003°36'0 0.0
2014-Dec-17 13:33N 51°27' E 003°36'0 0.0
2014-Dec-17 12:33N 51°27' E 003°36'0 0.0
2014-Dec-17 11:33N 51°27' E 003°36'0 0.0
2014-Dec-17 10:33N 51°27' E 003°36'0 0.0
2014-Dec-17 09:33N 51°27' E 003°36'0 0.0
2014-Dec-17 08:33N 51°27' E 003°36'0 0.0
2014-Dec-17 07:33N 51°27' E 003°36'0 0.0
2014-Dec-17 06:33N 51°27' E 003°36'0 0.0
2014-Dec-17 05:33N 51°27' E 003°36'0 0.0
2014-Dec-17 04:33N 51°27' E 003°36'0 0.0
2014-Dec-17 03:33N 51°27' E 003°36'0 0.0
2014-Dec-17 02:33N 51°27' E 003°36'0 0.0
2014-Dec-17 01:33N 51°27' E 003°36'0 0.0
2014-Dec-17 00:33N 51°27' E 003°36'0 0.0
2014-Dec-16 23:33N 51°27' E 003°36'0 0.0
2014-Dec-16 22:33N 51°27' E 003°36'0 0.0
2014-Dec-16 21:33N 51°27' E 003°36'0 0.0
2014-Dec-16 20:33N 51°27' E 003°36'0 0.0
2014-Dec-16 19:33N 51°27' E 003°36'0 0.0
2014-Dec-16 18:33N 51°27' E 003°36'0 0.0
2014-Dec-16 17:33N 51°27' E 003°36'0 0.0
2014-Dec-16 16:33N 51°27' E 003°36'0 0.0
2014-Dec-16 15:33N 51°27' E 003°36'0 0.0
2014-Dec-16 14:33N 51°27' E 003°36'0 0.0
2014-Dec-16 13:33N 51°27' E 003°36'0 0.0
2014-Dec-16 12:33N 51°27' E 003°36'1 0.7
2014-Dec-16 11:34N 51°26' E 003°37'6 6.4
2014-Dec-16 10:33N 51°25' E 003°27'10 9.9
2014-Dec-16 09:33N 51°24' E 003°11'1010.3
2014-Dec-16 08:33N 51°22' E 002°55'10 9.1
2014-Dec-16 07:30N 51°22' E 002°39'8 8.5
2014-Dec-16 06:32N 51°21' E 002°26'1111.0
2014-Dec-16 05:33N 51°15' E 002°11'1110.5
2014-Dec-16 04:33N 51°10' E 001°57'10 9.6
2014-Dec-16 03:32N 51°04' E 001°44'9 9.0
2014-Dec-16 02:33N 50°58' E 001°34'10 8.3
2014-Dec-16 01:22N 50°50' E 001°26'  

Dump ship's entire track history